Logan Peak - 24 Hour Table
Date & TimeSolar
Radiation
(W/m²)
Wind
Speed
(mph)
Wind
Direction
(degrees)
Air
Temperature
(°F)
Relative
Humidity
(%)
Barometeric
Pressure
(inHg)
Max
Wind
Speed
(mph)
2020/11/25 17:00 10 20.9 255 16.5 100 29.68 34.9
2020/11/25 16:00 40 23.2 238 17.0 93 29.68 34.0
2020/11/25 15:00 105 24.8 237 18.8 85 29.67 40.9
2020/11/25 14:00 276 26.3 213 19.5 77 29.67 40.7
2020/11/25 13:00 497 29.8 211 19.0 71 29.67 43.6
2020/11/25 12:00 386 28.9 205 17.5 79 29.68 38.7
2020/11/25 11:00 477 29.1 200 19.8 75 29.69 44.7
2020/11/25 10:00 288 34.7 196 19.8 71 29.67 48.1
2020/11/25 09:00 87 31.8 198 18.2 80 29.68 47.4
2020/11/25 08:00 21 28.6 209 18.6 88 29.69 36.9
2020/11/25 07:00 0 30.7 221 19.8 79 29.69 41.2
2020/11/25 06:00 0 31.1 221 18.8 84 29.70 40.3
2020/11/25 05:00 0 27.8 216 17.2 95 29.72 41.2
2020/11/25 04:00 0 17.7 222 15.9 96 29.73 32.2
2020/11/25 03:00 0 18.0 249 16.0 97 29.75 25.3
2020/11/25 02:00 0 23.6 237 15.4 97 29.75 30.6
2020/11/25 01:00 0 22.3 241 15.3 97 29.75 31.3
2020/11/25 00:00 0 21.9 260 15.6 97 29.76 28.2
2020/11/24 23:00 0 25.0 268 15.4 97 29.77 28.6
2020/11/24 22:00 0 24.5 269 13.9 96 29.77 28.4
2020/11/24 21:00 0 23.0 278 12.9 96 29.78 29.5
2020/11/24 20:00 0 16.4 264 12.6 96 29.78 29.1
2020/11/24 19:00 0 15.0 276 13.1 96 29.78 22.4
2020/11/24 18:00 0 16.4 279 13.2 96 29.78 21.9